Time;durP1;ratioP1;P1;durP2;ratioP2;P2;SDS_P1;SDS_P2;PMS_P1;PMS_P2;Temp;Humidity;BMP_temperature;BMP_pressure;BME280_temperature;BME280_humidity;BME280_pressure;Samples;Min_cycle;Max_cycle;Signal;HPM_P1;HPM_P2
2021/01/03 00:00:16;;;;;;;57.17;29.73;;;3.80;99.90;;;;;;5048999;28;20040;-53
2021/01/03 00:02:42;;;;;;;59.15;32.22;;;3.80;99.90;;;;;;5031936;28;20567;-52
2021/01/03 00:05:08;;;;;;;59.28;31.02;;;3.80;99.90;;;;;;5049946;28;20067;-58
2021/01/03 00:07:34;;;;;;;54.90;29.85;;;3.80;99.90;;;;;;5031841;28;20025;-55
2021/01/03 00:09:59;;;;;;;59.40;32.13;;;3.80;99.90;;;;;;5031124;28;20083;-55
2021/01/03 00:12:25;;;;;;;59.05;29.00;;;3.80;99.90;;;;;;5031662;28;20036;-54
2021/01/03 00:14:51;;;;;;;56.58;31.77;;;3.80;99.90;;;;;;5015764;28;20488;-52
2021/01/03 00:17:16;;;;;;;53.03;28.77;;;3.80;99.90;;;;;;5050024;28;20033;-56
2021/01/03 00:19:42;;;;;;;62.22;33.10;;;3.80;99.90;;;;;;5031542;28;20036;-52
2021/01/03 00:22:08;;;;;;;57.15;29.75;;;3.80;99.90;;;;;;5020437;28;20463;-55
2021/01/03 00:24:33;;;;;;;60.25;32.78;;;3.70;99.90;;;;;;5051707;28;20040;-55
2021/01/03 00:26:59;;;;;;;57.67;31.05;;;3.70;99.90;;;;;;5051448;28;20498;-55
2021/01/03 00:29:25;;;;;;;49.40;27.05;;;3.70;99.90;;;;;;5063639;28;20025;-53
2021/01/03 00:31:51;;;;;;;56.38;29.20;;;3.80;99.90;;;;;;5042757;28;20029;-55
2021/01/03 00:34:18;;;;;;;53.97;29.33;;;3.70;99.90;;;;;;5031425;28;20024;-55
2021/01/03 00:36:48;;;;;;;57.92;29.13;;;3.70;99.90;;;;;;5031197;28;20025;-55
2021/01/03 00:39:14;;;;;;;59.92;30.02;;;3.70;99.90;;;;;;5048680;28;20025;-54
2021/01/03 00:41:45;;;;;;;53.00;26.45;;;3.70;99.90;;;;;;5031351;28;20046;-54
2021/01/03 00:44:17;;;;;;;55.13;29.05;;;3.70;99.90;;;;;;5049395;28;20056;-54
2021/01/03 00:46:43;;;;;;;58.15;30.42;;;3.70;99.90;;;;;;5062249;28;20024;-55
2021/01/03 00:49:09;;;;;;;52.30;27.27;;;3.70;99.90;;;;;;4682992;28;10000552;-57
2021/01/03 00:51:37;;;;;;;59.53;30.23;;;3.70;99.90;;;;;;5032588;28;20086;-58
2021/01/03 00:54:03;;;;;;;;;;;3.70;99.90;;;;;;5045175;28;20017;-54
2021/01/03 00:56:31;;;;;;;55.67;27.08;;;3.80;99.90;;;;;;5099833;22;19969;-65
2021/01/03 00:58:57;;;;;;;54.38;27.88;;;3.70;99.90;;;;;;5091456;28;20020;-65
2021/01/03 01:01:23;;;;;;;50.85;27.30;;;3.70;99.90;;;;;;5073586;28;20039;-64
2021/01/03 01:03:49;;;;;;;54.75;29.88;;;3.70;99.90;;;;;;5091574;28;20049;-61
2021/01/03 01:06:15;;;;;;;53.63;29.92;;;3.70;99.90;;;;;;5059831;28;20036;-63
2021/01/03 01:08:41;;;;;;;53.45;26.63;;;3.70;99.90;;;;;;5052733;28;20044;-65
2021/01/03 01:11:07;;;;;;;52.30;28.30;;;3.70;99.90;;;;;;5052056;28;20012;-62
2021/01/03 01:13:38;;;;;;;50.92;26.73;;;3.70;99.90;;;;;;5053415;28;20039;-63
2021/01/03 01:16:10;;;;;;;53.15;27.35;;;3.70;99.90;;;;;;5053230;28;20028;-63
2021/01/03 01:18:37;;;;;;;52.60;27.50;;;3.70;99.90;;;;;;5071073;28;20112;-64
2021/01/03 01:21:10;;;;;;;51.85;29.08;;;3.70;99.90;;;;;;5062619;28;20114;-61
2021/01/03 01:23:36;;;;;;;52.92;27.88;;;3.70;99.90;;;;;;5073399;28;20483;-62
2021/01/03 01:26:01;;;;;;;51.33;27.38;;;3.60;99.90;;;;;;5083196;28;20031;-64
2021/01/03 01:28:27;;;;;;;52.28;26.88;;;3.70;99.90;;;;;;5071341;28;20395;-61
2021/01/03 01:30:53;;;;;;;51.25;27.35;;;3.70;99.90;;;;;;5052613;28;20063;-62
2021/01/03 01:33:19;;;;;;;50.88;27.40;;;3.60;99.90;;;;;;5053003;28;20017;-63
2021/01/03 01:35:48;;;;;;;58.10;30.60;;;3.70;99.90;;;;;;5070892;28;20032;-63
2021/01/03 01:38:17;;;;;;;54.30;27.73;;;3.60;99.90;;;;;;5052757;28;20055;-60
2021/01/03 01:40:43;;;;;;;53.95;27.70;;;3.60;99.90;;;;;;5073744;28;20536;-62
2021/01/03 01:43:13;;;;;;;52.38;27.20;;;3.60;99.90;;;;;;5091115;28;20043;-59
2021/01/03 01:45:41;;;;;;;51.40;25.85;;;3.60;99.90;;;;;;5072713;28;20058;-64
2021/01/03 01:48:17;;;;;;;45.58;25.40;;;3.60;99.90;;;;;;5090738;28;20024;-63
2021/01/03 01:50:47;;;;;;;47.38;25.13;;;3.70;99.90;;;;;;5072673;28;20063;-64
2021/01/03 01:53:28;;;;;;;48.05;25.80;;;3.70;99.90;;;;;;5072721;28;20031;-62
2021/01/03 01:56:11;;;;;;;52.97;27.92;;;3.70;99.90;;;;;;5071356;28;20113;-61
2021/01/03 01:58:48;;;;;;;50.92;28.33;;;3.60;99.90;;;;;;5032359;28;20055;-63
2021/01/03 02:01:20;;;;;;;51.63;27.15;;;3.60;99.90;;;;;;5070068;28;20552;-63
2021/01/03 02:04:06;;;;;;;50.33;26.15;;;3.60;99.90;;;;;;5071007;28;20028;-64
2021/01/03 02:06:46;;;;;;;54.03;27.20;;;3.60;99.90;;;;;;5076074;28;20081;-61
2021/01/03 02:09:18;;;;;;;48.70;26.20;;;3.60;99.90;;;;;;5089633;28;20472;-63
2021/01/03 02:11:44;;;;;;;54.95;26.33;;;3.70;99.90;;;;;;5058273;28;20033;-63
2021/01/03 02:14:12;;;;;;;51.45;27.35;;;3.60;99.90;;;;;;5071218;28;20028;-63
2021/01/03 02:16:38;;;;;;;52.28;28.05;;;3.60;99.90;;;;;;5080350;28;20030;-62
2021/01/03 02:19:22;;;;;;;55.95;28.10;;;3.60;99.90;;;;;;5090333;28;20066;-62
2021/01/03 02:22:01;;;;;;;55.50;29.15;;;3.60;99.90;;;;;;5091106;28;20111;-63
2021/01/03 02:24:44;;;;;;;53.85;28.42;;;3.60;99.90;;;;;;5090895;28;20110;-62
2021/01/03 02:27:38;;;;;;;54.35;29.20;;;3.60;99.90;;;;;;5059298;28;20059;-62
2021/01/03 02:30:08;;;;;;;49.92;27.52;;;3.60;99.90;;;;;;5064840;28;20437;-63
2021/01/03 02:32:36;;;;;;;49.00;25.90;;;3.60;99.90;;;;;;5070337;28;20166;-64
2021/01/03 02:35:05;;;;;;;51.72;27.58;;;3.60;99.90;;;;;;5052365;28;20120;-62
2021/01/03 02:37:39;;;;;;;49.53;24.38;;;3.60;99.90;;;;;;5070444;28;20404;-62
2021/01/03 02:40:22;;;;;;;52.30;28.55;;;3.50;99.90;;;;;;5053038;28;20024;-62
2021/01/03 02:42:55;;;;;;;49.85;24.38;;;3.50;99.90;;;;;;5090611;28;20024;-62
2021/01/03 02:45:26;;;;;;;48.47;25.75;;;3.60;99.90;;;;;;5072988;28;20088;-62
2021/01/03 02:47:56;;;;;;;50.60;28.20;;;3.60;99.90;;;;;;5076493;28;20024;-60
2021/01/03 02:50:24;;;;;;;50.38;25.13;;;3.50;99.90;;;;;;5075747;28;20024;-63
2021/01/03 02:52:50;;;;;;;54.63;25.20;;;3.60;99.90;;;;;;5094676;28;20069;-60
2021/01/03 02:55:18;;;;;;;53.00;26.58;;;3.60;99.90;;;;;;5093080;28;20082;-63
2021/01/03 02:57:47;;;;;;;52.00;26.73;;;3.60;99.90;;;;;;5075578;28;20024;-62
2021/01/03 03:00:20;;;;;;;51.10;27.60;;;3.60;99.90;;;;;;5055469;28;20028;-62
2021/01/03 03:02:46;;;;;;;51.72;25.35;;;3.50;99.90;;;;;;5066677;28;20020;-62
2021/01/03 03:05:12;;;;;;;50.92;26.20;;;3.50;99.90;;;;;;5075769;28;20081;-64
2021/01/03 03:07:38;;;;;;;51.65;26.90;;;3.50;99.90;;;;;;5082560;28;20403;-59
2021/01/03 03:10:05;;;;;;;50.63;24.23;;;3.50;99.90;;;;;;5091633;28;20042;-62
2021/01/03 03:12:31;;;;;;;48.90;26.33;;;3.60;99.90;;;;;;5074097;28;20086;-63
2021/01/03 03:14:57;;;;;;;45.72;22.98;;;3.60;99.90;;;;;;5055826;28;20535;-63
2021/01/03 03:17:23;;;;;;;46.78;22.70;;;3.60;99.90;;;;;;5093633;28;20024;-63
2021/01/03 03:19:49;;;;;;;48.90;22.63;;;3.50;99.90;;;;;;5093397;28;20027;-64
2021/01/03 03:22:14;;;;;;;45.33;21.55;;;3.60;99.90;;;;;;5075662;28;20058;-65
2021/01/03 03:24:40;;;;;;;48.05;23.58;;;3.50;99.90;;;;;;5093687;28;20518;-65
2021/01/03 03:27:05;;;;;;;47.95;24.42;;;3.50;99.90;;;;;;5059630;28;20026;-64
2021/01/03 03:29:31;;;;;;;47.47;24.63;;;3.50;99.90;;;;;;5078788;28;20424;-65
2021/01/03 03:31:57;;;;;;;44.60;23.17;;;3.50;99.90;;;;;;5076474;28;20063;-62
2021/01/03 03:34:25;;;;;;;45.97;24.08;;;3.50;99.90;;;;;;5055509;28;20531;-62
2021/01/03 03:36:57;;;;;;;44.53;23.45;;;3.50;99.90;;;;;;5055339;28;20403;-63
2021/01/03 03:39:25;;;;;;;47.53;22.38;;;3.50;99.90;;;;;;5054630;28;20483;-60
2021/01/03 03:41:59;;;;;;;50.05;24.58;;;3.50;99.90;;;;;;5073384;28;20044;-63
2021/01/03 03:44:26;;;;;;;46.28;22.58;;;3.50;99.90;;;;;;5073860;28;20107;-62
2021/01/03 03:46:54;;;;;;;46.25;23.00;;;3.50;99.90;;;;;;5056084;28;20035;-62
2021/01/03 03:49:20;;;;;;;48.85;22.65;;;3.50;99.90;;;;;;5072510;28;20020;-62
2021/01/03 03:51:46;;;;;;;43.28;22.73;;;3.40;99.90;;;;;;5091758;28;20032;-62
2021/01/03 03:54:17;;;;;;;45.35;25.85;;;3.40;99.90;;;;;;5093706;28;20035;-62
2021/01/03 03:56:52;;;;;;;46.55;22.90;;;3.40;99.90;;;;;;5093381;28;20107;-63
2021/01/03 03:59:18;;;;;;;42.53;22.60;;;3.40;99.90;;;;;;5083765;28;20036;-63
2021/01/03 04:01:44;;;;;;;40.78;19.80;;;3.40;99.90;;;;;;5088585;28;20047;-63
2021/01/03 04:04:10;;;;;;;42.03;20.92;;;3.40;99.90;;;;;;5092968;28;20059;-63
2021/01/03 04:06:36;;;;;;;42.80;19.63;;;3.50;99.90;;;;;;5057821;28;20382;-63
2021/01/03 04:09:03;;;;;;;42.45;21.27;;;3.50;99.90;;;;;;5084633;28;20115;-63
2021/01/03 04:11:32;;;;;;;44.60;20.05;;;3.50;99.90;;;;;;5076786;28;20252;-62
2021/01/03 04:13:59;;;;;;;39.67;18.10;;;3.50;99.90;;;;;;5054689;28;20498;-62
2021/01/03 04:16:25;;;;;;;40.22;20.70;;;3.50;99.90;;;;;;5054252;28;20030;-64
2021/01/03 04:18:51;;;;;;;40.25;18.83;;;3.50;99.90;;;;;;5053580;28;20083;-64
2021/01/03 04:21:17;;;;;;;42.85;21.15;;;3.50;99.90;;;;;;5074772;28;20078;-62
2021/01/03 04:23:43;;;;;;;38.22;19.50;;;3.50;99.90;;;;;;5074386;28;20016;-62
2021/01/03 04:26:18;;;;;;;40.10;21.38;;;3.50;99.90;;;;;;5092722;28;20050;-62
2021/01/03 04:28:44;;;;;;;36.90;20.05;;;3.40;99.90;;;;;;5089466;28;20505;-63
2021/01/03 04:31:10;;;;;;;37.15;19.48;;;3.50;99.90;;;;;;5056775;28;20033;-64
2021/01/03 04:33:37;;;;;;;37.78;19.92;;;3.50;99.90;;;;;;5072084;28;20048;-62
2021/01/03 04:36:06;;;;;;;40.40;18.55;;;3.50;99.90;;;;;;5077889;28;20459;-62
2021/01/03 04:38:32;;;;;;;38.17;19.15;;;3.50;99.90;;;;;;5091797;28;20352;-62
2021/01/03 04:40:58;;;;;;;37.58;18.10;;;3.50;99.90;;;;;;5092195;28;20165;-60
2021/01/03 04:43:25;;;;;;;38.15;17.27;;;3.50;99.90;;;;;;5092317;28;20034;-62
2021/01/03 04:46:06;;;;;;;36.00;17.02;;;3.50;99.90;;;;;;5073762;28;20574;-64
2021/01/03 04:48:33;;;;;;;33.40;15.85;;;3.50;99.90;;;;;;5050581;28;20037;-64
2021/01/03 04:51:10;;;;;;;37.05;16.52;;;3.50;99.90;;;;;;5034523;28;20052;-64
2021/01/03 04:54:02;;;;;;;36.47;15.63;;;3.50;99.90;;;;;;5058422;28;20380;-63
2021/01/03 04:56:40;;;;;;;35.67;17.33;;;3.50;99.90;;;;;;5066852;28;20032;-64
2021/01/03 04:59:20;;;;;;;30.55;14.52;;;3.50;99.90;;;;;;5073358;28;20113;-64
2021/01/03 05:02:10;;;;;;;31.13;14.35;;;3.50;99.90;;;;;;5072737;28;20441;-63
2021/01/03 05:04:51;;;;;;;35.17;16.90;;;3.50;99.90;;;;;;5072167;28;20029;-63
2021/01/03 05:07:19;;;;;;;32.38;14.40;;;3.50;99.90;;;;;;5091840;28;20016;-62
2021/01/03 05:09:47;;;;;;;31.63;14.10;;;3.50;99.90;;;;;;5090673;28;20031;-63
2021/01/03 05:12:23;;;;;;;38.42;16.92;;;3.50;99.90;;;;;;5091752;28;20020;-64
2021/01/03 05:14:57;;;;;;;30.60;14.43;;;3.50;99.90;;;;;;5091644;28;20073;-64
2021/01/03 05:17:23;;;;;;;28.50;12.85;;;3.50;99.90;;;;;;5091810;28;20375;-62
2021/01/03 05:19:48;;;;;;;28.45;13.57;;;3.50;99.90;;;;;;5090791;28;20439;-64
2021/01/03 05:22:33;;;;;;;30.38;15.32;;;3.50;99.90;;;;;;5091430;28;20103;-58
2021/01/03 05:25:01;;;;;;;28.73;13.80;;;3.50;99.90;;;;;;5068459;28;20100;-63
2021/01/03 05:27:28;;;;;;;32.57;14.73;;;3.50;99.90;;;;;;5078511;28;20133;-61
2021/01/03 05:30:20;;;;;;;25.98;12.00;;;3.50;99.90;;;;;;5052540;28;20028;-63
2021/01/03 05:32:47;;;;;;;26.05;12.75;;;3.50;99.90;;;;;;5051113;28;20013;-61
2021/01/03 05:35:23;;;;;;;27.27;12.88;;;3.50;99.90;;;;;;5050967;28;20468;-61
2021/01/03 05:37:51;;;;;;;29.20;12.32;;;3.50;99.90;;;;;;5081285;28;20495;-62
2021/01/03 05:40:28;;;;;;;33.53;12.80;;;3.60;99.90;;;;;;5090630;28;20039;-63
2021/01/03 05:43:09;;;;;;;24.17;11.55;;;3.50;99.90;;;;;;5091277;28;20036;-64
2021/01/03 05:45:46;;;;;;;24.98;11.55;;;3.50;99.90;;;;;;5060939;28;20456;-62
2021/01/03 05:48:21;;;;;;;29.02;11.55;;;3.50;99.90;;;;;;5070494;28;20476;-62
2021/01/03 05:50:47;;;;;;;24.45;10.63;;;3.50;99.90;;;;;;5070333;28;20104;-62
2021/01/03 05:53:25;;;;;;;26.10;9.95;;;3.50;99.90;;;;;;5070581;28;20492;-62
2021/01/03 05:55:53;;;;;;;22.38;9.77;;;3.50;99.90;;;;;;5071618;28;20025;-61
2021/01/03 05:58:30;;;;;;;24.88;9.55;;;3.50;99.90;;;;;;5070113;28;20024;-61
2021/01/03 06:01:15;;;;;;;21.50;9.32;;;3.50;99.90;;;;;;5060710;28;20376;-63
2021/01/03 06:03:41;;;;;;;23.40;8.75;;;3.60;99.90;;;;;;5090932;28;20410;-61
2021/01/03 06:06:19;;;;;;;22.02;9.00;;;3.60;99.90;;;;;;5082996;28;20024;-63
2021/01/03 06:08:47;;;;;;;21.23;9.15;;;3.60;99.90;;;;;;5069943;28;20028;-58
2021/01/03 06:11:17;;;;;;;19.98;8.25;;;3.60;99.90;;;;;;5070365;28;20439;-62
2021/01/03 06:13:55;;;;;;;20.45;8.63;;;3.60;99.90;;;;;;5070577;28;20468;-62
2021/01/03 06:16:27;;;;;;;21.17;8.10;;;3.60;99.90;;;;;;5070385;28;20082;-63
2021/01/03 06:19:23;;;;;;;20.13;7.47;;;3.60;99.90;;;;;;5051720;28;20052;-62
2021/01/03 06:21:52;;;;;;;21.38;8.27;;;3.60;99.90;;;;;;5069905;28;20091;-62
2021/01/03 06:24:27;;;;;;;21.00;8.35;;;3.60;99.90;;;;;;5052252;28;20021;-61
2021/01/03 06:27:00;;;;;;;18.63;7.05;;;3.60;99.90;;;;;;5053278;28;20064;-62
2021/01/03 06:29:42;;;;;;;20.27;7.32;;;3.60;99.90;;;;;;5071482;28;20646;-62
2021/01/03 06:32:36;;;;;;;19.38;7.13;;;3.60;99.90;;;;;;5072128;28;20530;-64
2021/01/03 06:35:08;;;;;;;20.35;8.13;;;3.70;99.90;;;;;;5072221;28;20028;-64
2021/01/03 06:37:58;;;;;;;19.85;7.38;;;3.60;99.90;;;;;;5067308;28;20071;-62
2021/01/03 06:40:37;;;;;;;23.27;9.13;;;3.70;99.90;;;;;;5051542;28;20439;-62
2021/01/03 06:43:37;;;;;;;20.48;7.53;;;3.60;99.90;;;;;;5070305;28;20028;-64
2021/01/03 06:46:28;;;;;;;17.35;7.25;;;3.60;99.90;;;;;;5070138;28;20024;-64
2021/01/03 06:49:14;;;;;;;21.10;8.15;;;3.60;99.90;;;;;;5069451;28;20041;-65
2021/01/03 06:52:01;;;;;;;20.17;8.35;;;3.60;99.90;;;;;;5070134;28;20415;-63
2021/01/03 06:54:54;;;;;;;19.33;6.85;;;3.60;99.90;;;;;;5070086;28;20376;-64
2021/01/03 06:57:50;;;;;;;17.73;6.70;;;3.60;99.90;;;;;;5082665;23;20047;-57
2021/01/03 07:00:34;;;;;;;20.08;7.78;;;3.60;99.90;;;;;;5072124;28;20098;-57
2021/01/03 07:03:21;;;;;;;17.55;7.13;;;3.60;99.90;;;;;;5066846;28;20016;-56
2021/01/03 07:06:10;;;;;;;19.70;6.82;;;3.60;99.90;;;;;;5086950;28;20027;-55
2021/01/03 07:08:43;;;;;;;19.95;7.20;;;3.60;99.90;;;;;;5065340;28;20071;-55
2021/01/03 07:11:40;;;;;;;18.02;7.22;;;3.60;99.90;;;;;;5059050;28;20025;-52
2021/01/03 07:14:22;;;;;;;18.67;6.57;;;3.60;99.90;;;;;;5071655;28;20078;-54
2021/01/03 07:16:56;;;;;;;18.48;7.03;;;3.60;99.90;;;;;;5059242;28;20074;-57
2021/01/03 07:19:31;;;;;;;18.50;6.72;;;3.60;99.90;;;;;;5049747;28;20029;-57
2021/01/03 07:22:11;;;;;;;18.50;6.30;;;3.50;99.90;;;;;;5069954;28;20028;-53
2021/01/03 07:24:46;;;;;;;18.48;6.95;;;3.60;99.90;;;;;;5070133;28;20024;-53
2021/01/03 07:27:32;;;;;;;17.33;6.13;;;3.60;99.90;;;;;;5054011;28;20083;-53
2021/01/03 07:30:21;;;;;;;18.35;6.32;;;3.50;99.90;;;;;;5067480;28;20031;-56
2021/01/03 07:32:59;;;;;;;17.80;6.93;;;3.60;99.90;;;;;;5057064;28;20047;-52
2021/01/03 07:35:39;;;;;;;19.23;6.87;;;3.60;99.90;;;;;;5058908;28;20048;-54
2021/01/03 07:38:23;;;;;;;18.30;6.75;;;3.60;99.90;;;;;;5070998;28;20278;-57
2021/01/03 07:40:54;;;;;;;18.15;7.00;;;3.60;99.90;;;;;;5055039;28;20021;-54
2021/01/03 07:43:25;;;;;;;16.65;6.15;;;3.60;99.90;;;;;;5033853;28;20436;-52
2021/01/03 07:45:51;;;;;;;16.85;6.47;;;3.60;99.90;;;;;;5035024;28;20083;-50
2021/01/03 07:48:38;;;;;;;20.23;8.30;;;3.60;99.90;;;;;;5070792;28;20398;-52
2021/01/03 07:51:10;;;;;;;17.90;6.77;;;3.60;99.90;;;;;;5074413;28;20029;-54
2021/01/03 07:53:38;;;;;;;16.95;5.82;;;3.60;99.90;;;;;;5073330;28;20070;-52
2021/01/03 07:56:16;;;;;;;19.17;6.05;;;3.60;99.90;;;;;;5074603;28;20052;-55
2021/01/03 07:58:42;;;;;;;16.67;6.13;;;3.60;99.90;;;;;;5058488;28;20116;-52
2021/01/03 08:01:13;;;;;;;18.25;7.32;;;3.60;99.90;;;;;;5063233;28;20486;-51
2021/01/03 08:03:39;;;;;;;16.20;5.82;;;3.70;99.90;;;;;;5055722;28;20025;-54
2021/01/03 08:06:07;;;;;;;17.63;6.55;;;3.60;99.90;;;;;;5050167;28;20021;-55
2021/01/03 08:08:36;;;;;;;18.27;6.38;;;3.60;99.90;;;;;;5056471;28;20044;-53
2021/01/03 08:11:16;;;;;;;17.02;6.32;;;3.60;99.90;;;;;;5070947;28;20066;-54
2021/01/03 08:13:45;;;;;;;16.85;5.82;;;3.60;99.90;;;;;;5052601;28;20075;-54
2021/01/03 08:16:17;;;;;;;15.95;5.82;;;3.60;99.90;;;;;;5052520;28;20151;-56
2021/01/03 08:18:55;;;;;;;16.15;5.95;;;3.60;99.90;;;;;;5069353;28;20028;-54
2021/01/03 08:21:21;;;;;;;15.25;5.28;;;3.60;99.90;;;;;;5063829;28;20035;-56
2021/01/03 08:23:47;;;;;;;16.02;5.53;;;3.60;99.90;;;;;;5053691;28;20709;-52
2021/01/03 08:26:23;;;;;;;16.67;5.50;;;3.60;99.90;;;;;;5062066;28;20117;-54
2021/01/03 08:29:15;;;;;;;15.82;5.72;;;3.60;99.90;;;;;;5062361;28;20027;-52
2021/01/03 08:32:04;;;;;;;20.15;6.95;;;3.60;99.90;;;;;;5069986;28;20036;-54
2021/01/03 08:34:33;;;;;;;14.23;4.97;;;3.60;99.90;;;;;;5032146;28;20032;-56
2021/01/03 08:37:11;;;;;;;16.48;6.65;;;3.60;99.90;;;;;;5054384;28;20043;-55
2021/01/03 08:39:36;;;;;;;17.85;6.15;;;3.70;99.90;;;;;;5075106;28;20020;-55
2021/01/03 08:42:07;;;;;;;15.57;5.38;;;3.70;99.90;;;;;;5073361;28;20471;-54
2021/01/03 08:44:41;;;;;;;17.45;6.60;;;3.70;99.90;;;;;;5062813;28;20055;-53
2021/01/03 08:47:11;;;;;;;15.82;5.53;;;3.70;99.90;;;;;;5060503;28;20021;-55
2021/01/03 08:49:37;;;;;;;17.27;5.80;;;3.80;99.90;;;;;;5070140;28;20062;-53
2021/01/03 08:52:21;;;;;;;18.48;6.38;;;3.70;99.90;;;;;;5059567;28;20025;-52
2021/01/03 08:55:01;;;;;;;16.52;5.75;;;3.80;99.90;;;;;;5053578;28;20104;-53
2021/01/03 08:57:26;;;;;;;16.33;6.53;;;3.70;99.90;;;;;;5052058;28;20040;-54
2021/01/03 08:59:52;;;;;;;17.17;6.72;;;3.70;99.90;;;;;;5050146;28;20033;-57
2021/01/03 09:02:27;;;;;;;17.35;5.80;;;3.70;99.90;;;;;;5067803;28;20411;-52
2021/01/03 09:05:02;;;;;;;17.65;6.45;;;3.70;99.90;;;;;;5063856;28;20372;-54
2021/01/03 09:07:34;;;;;;;16.38;6.65;;;3.70;99.90;;;;;;5051564;28;20028;-55
2021/01/03 09:10:01;;;;;;;14.77;5.57;;;3.70;99.90;;;;;;5053542;28;20036;-58
2021/01/03 09:12:36;;;;;;;16.25;5.75;;;3.80;99.90;;;;;;5053928;28;20112;-54
2021/01/03 09:15:06;;;;;;;15.63;6.60;;;3.80;99.90;;;;;;5054043;28;20174;-54
2021/01/03 09:17:36;;;;;;;16.65;6.18;;;3.80;99.90;;;;;;5064911;28;20419;-55
2021/01/03 09:20:11;;;;;;;17.38;6.35;;;3.90;99.90;;;;;;5070165;28;20558;-54
2021/01/03 09:22:41;;;;;;;16.95;6.53;;;3.80;99.90;;;;;;5070537;28;20051;-52
2021/01/03 09:25:12;;;;;;;17.42;6.90;;;3.90;99.90;;;;;;5070528;28;20062;-56
2021/01/03 09:27:39;;;;;;;17.58;7.05;;;3.90;99.90;;;;;;5070491;28;20031;-54
2021/01/03 09:30:17;;;;;;;18.55;6.60;;;3.90;99.90;;;;;;5068095;28;20036;-56
2021/01/03 09:32:45;;;;;;;17.58;6.40;;;3.90;99.90;;;;;;5061406;28;20086;-56
2021/01/03 09:35:28;;;;;;;17.35;6.30;;;3.90;99.90;;;;;;5070269;28;20020;-54
2021/01/03 09:38:17;;;;;;;18.30;7.13;;;3.90;99.90;;;;;;5070157;28;20392;-57
2021/01/03 09:40:48;;;;;;;;;;;3.90;99.90;;;;;;5036271;28;20479;-54
2021/01/03 09:43:32;;;;;;;16.77;6.43;;;3.90;99.90;;;;;;5069358;28;19999;-56
2021/01/03 09:46:03;;;;;;;16.55;6.13;;;3.90;99.90;;;;;;5071670;28;20387;-53
2021/01/03 09:48:39;;;;;;;16.58;6.32;;;3.90;99.90;;;;;;5056980;28;20033;-58
2021/01/03 09:51:14;;;;;;;18.92;6.50;;;3.90;99.90;;;;;;5051166;28;20144;-57
2021/01/03 09:53:41;;;;;;;15.98;6.53;;;3.90;99.90;;;;;;5051284;28;20025;-56
2021/01/03 09:56:07;;;;;;;16.83;7.00;;;4.00;99.90;;;;;;5029046;28;600411;-60
2021/01/03 09:58:42;;;;;;;17.60;6.68;;;3.90;99.90;;;;;;5051197;28;20029;-60
2021/01/03 10:01:21;;;;;;;18.27;6.35;;;3.90;99.90;;;;;;5051943;28;20036;-58
2021/01/03 10:03:47;;;;;;;17.95;6.97;;;4.00;99.90;;;;;;5050461;28;20477;-64
2021/01/03 10:06:33;;;;;;;16.52;6.60;;;4.10;99.90;;;;;;5053171;28;20032;-56
2021/01/03 10:09:23;;;;;;;18.35;7.00;;;4.10;99.90;;;;;;5069600;28;20032;-60
2021/01/03 10:11:50;;;;;;;17.55;6.63;;;4.10;99.90;;;;;;5056047;28;20430;-60
2021/01/03 10:14:35;;;;;;;17.90;7.50;;;4.10;99.90;;;;;;5051041;28;20398;-58
2021/01/03 10:17:14;;;;;;;17.85;6.68;;;4.10;99.90;;;;;;5050724;28;20380;-59
2021/01/03 10:19:40;;;;;;;19.02;7.10;;;4.70;99.90;;;;;;5050007;28;20033;-59
2021/01/03 10:22:24;;;;;;;17.92;6.90;;;5.00;99.90;;;;;;5051619;28;20025;-60
2021/01/03 10:25:03;;;;;;;16.73;6.47;;;4.80;99.90;;;;;;5050602;28;20264;-56
2021/01/03 10:27:31;;;;;;;17.15;7.03;;;4.50;99.90;;;;;;5057986;28;20435;-57
2021/01/03 10:29:59;;;;;;;;;;;4.30;99.90;;;;;;5048676;28;20032;-56
2021/01/03 10:32:25;;;;;;;17.48;6.43;;;4.30;99.90;;;;;;5055572;28;19912;-60
2021/01/03 10:34:50;;;;;;;16.60;6.18;;;4.30;99.90;;;;;;5047157;28;20090;-56
2021/01/03 10:37:16;;;;;;;16.55;6.53;;;4.30;99.90;;;;;;5059581;28;20108;-60
2021/01/03 10:39:44;;;;;;;17.67;6.80;;;4.40;99.90;;;;;;5055758;28;20613;-60
2021/01/03 10:42:11;;;;;;;17.50;7.10;;;4.50;99.90;;;;;;5060904;28;20025;-49
2021/01/03 10:44:39;;;;;;;15.95;6.63;;;4.50;99.90;;;;;;5049971;28;20025;-54
2021/01/03 10:47:05;;;;;;;18.02;7.18;;;4.40;99.90;;;;;;5050399;28;20052;-54
2021/01/03 10:49:31;;;;;;;19.60;7.43;;;4.50;99.90;;;;;;5049090;28;20064;-56
2021/01/03 10:51:57;;;;;;;18.42;7.20;;;4.40;99.90;;;;;;5056026;28;20033;-53
2021/01/03 10:54:25;;;;;;;18.33;7.53;;;4.50;99.90;;;;;;5058916;28;20033;-55
2021/01/03 10:56:52;;;;;;;17.17;6.75;;;4.50;99.90;;;;;;5060978;28;20484;-49
2021/01/03 10:59:19;;;;;;;17.42;6.90;;;4.50;99.90;;;;;;5067635;28;20040;-51
2021/01/03 11:01:45;;;;;;;19.67;7.22;;;4.50;99.90;;;;;;5056582;28;20021;-56
2021/01/03 11:04:11;;;;;;;16.65;6.50;;;4.60;99.90;;;;;;5065878;28;20381;-50
2021/01/03 11:06:43;;;;;;;19.55;6.72;;;4.60;99.90;;;;;;5056671;28;20146;-53
2021/01/03 11:09:14;;;;;;;17.90;7.30;;;4.60;99.90;;;;;;5064714;28;20071;-54
2021/01/03 11:11:39;;;;;;;20.58;7.25;;;4.60;99.90;;;;;;5073728;28;20030;-54
2021/01/03 11:14:05;;;;;;;19.10;7.63;;;4.60;99.90;;;;;;5059450;28;20021;-53
2021/01/03 11:16:33;;;;;;;19.10;8.20;;;4.50;99.90;;;;;;5071854;28;20021;-57
2021/01/03 11:18:59;;;;;;;18.80;7.68;;;4.40;99.90;;;;;;5054637;28;20032;-56
2021/01/03 11:21:25;;;;;;;20.73;8.27;;;4.40;99.90;;;;;;5056321;28;20065;-51
2021/01/03 11:23:50;;;;;;;19.30;7.57;;;4.30;99.90;;;;;;5064937;28;20056;-55
2021/01/03 11:26:25;;;;;;;19.70;8.13;;;4.30;99.90;;;;;;5070425;28;20035;-50
2021/01/03 11:28:51;;;;;;;21.10;7.93;;;4.40;99.90;;;;;;5054312;28;20025;-54
2021/01/03 11:31:16;;;;;;;19.33;7.97;;;4.40;99.90;;;;;;5053843;28;20720;-53
2021/01/03 11:33:42;;;;;;;19.83;8.27;;;4.40;99.90;;;;;;5062786;28;20480;-54
2021/01/03 11:36:10;;;;;;;20.52;8.77;;;4.50;99.90;;;;;;5074156;28;20048;-52
2021/01/03 11:38:36;;;;;;;24.23;9.85;;;4.50;99.90;;;;;;5072813;28;20043;-54
2021/01/03 11:41:05;;;;;;;22.15;9.40;;;4.60;99.90;;;;;;5074661;28;20054;-52
2021/01/03 11:43:31;;;;;;;20.88;8.38;;;4.50;99.90;;;;;;5072203;28;20024;-54
2021/01/03 11:45:56;;;;;;;22.10;8.57;;;4.50;99.90;;;;;;5073219;28;20090;-54
2021/01/03 11:48:22;;;;;;;20.02;8.55;;;4.60;99.90;;;;;;5073627;28;20047;-55
2021/01/03 11:50:48;;;;;;;19.25;7.60;;;4.50;99.90;;;;;;5072900;28;20023;-56
2021/01/03 11:53:13;;;;;;;18.13;7.45;;;4.50;99.90;;;;;;5074244;28;20101;-55
2021/01/03 11:55:39;;;;;;;20.08;7.75;;;4.60;99.90;;;;;;5072683;28;20028;-51
2021/01/03 11:58:05;;;;;;;23.08;8.13;;;4.60;99.90;;;;;;5072712;28;20052;-52
2021/01/03 12:00:32;;;;;;;19.92;7.97;;;4.60;99.90;;;;;;5073457;28;20468;-53
2021/01/03 12:02:58;;;;;;;21.00;7.22;;;4.60;99.90;;;;;;5073823;28;20024;-57
2021/01/03 12:05:28;;;;;;;17.92;7.80;;;4.60;99.90;;;;;;5071399;28;20103;-55
2021/01/03 12:07:53;;;;;;;18.92;7.32;;;4.60;99.90;;;;;;5033675;28;20440;-54
2021/01/03 12:10:19;;;;;;;20.20;7.95;;;4.60;99.90;;;;;;5031582;28;20036;-55
2021/01/03 12:12:47;;;;;;;19.70;8.05;;;4.60;99.90;;;;;;5033649;28;20026;-55
2021/01/03 12:15:13;;;;;;;19.00;7.80;;;4.60;99.90;;;;;;5032665;28;20021;-52
2021/01/03 12:17:39;;;;;;;18.15;7.80;;;4.70;99.90;;;;;;5032561;28;20029;-54
2021/01/03 12:20:05;;;;;;;20.20;7.70;;;4.70;99.90;;;;;;5032997;28;20029;-57
2021/01/03 12:22:33;;;;;;;20.15;7.65;;;4.70;99.90;;;;;;5033663;28;20030;-53
2021/01/03 12:24:58;;;;;;;18.77;8.25;;;4.80;99.90;;;;;;5033704;28;20029;-52
2021/01/03 12:27:24;;;;;;;22.83;7.85;;;4.90;99.90;;;;;;5033352;28;20025;-52
2021/01/03 12:29:49;;;;;;;17.88;7.50;;;4.80;99.90;;;;;;5033073;28;20029;-53
2021/01/03 12:32:16;;;;;;;18.77;7.50;;;4.80;99.90;;;;;;5033644;28;20393;-51
2021/01/03 12:34:42;;;;;;;20.35;7.65;;;4.70;99.90;;;;;;5033452;28;20457;-54
2021/01/03 12:37:13;;;;;;;19.80;6.97;;;4.70;99.90;;;;;;5031972;28;20032;-52
2021/01/03 12:39:40;;;;;;;21.08;8.38;;;4.60;99.90;;;;;;5031414;28;20021;-55
2021/01/03 12:42:12;;;;;;;18.38;7.60;;;4.60;99.90;;;;;;5032068;28;20034;-52
2021/01/03 12:44:38;;;;;;;18.63;7.47;;;4.70;99.90;;;;;;5033130;28;20034;-52
2021/01/03 12:47:03;;;;;;;20.17;8.50;;;4.70;99.90;;;;;;5031679;28;20218;-54
2021/01/03 12:49:30;;;;;;;20.30;7.25;;;4.70;99.90;;;;;;5032303;28;20087;-55
2021/01/03 12:51:55;;;;;;;16.30;6.90;;;4.60;99.90;;;;;;5032308;28;20029;-56
2021/01/03 12:54:21;;;;;;;21.42;7.30;;;4.60;99.90;;;;;;5031834;28;20508;-52
2021/01/03 12:56:47;;;;;;;18.15;7.13;;;4.60;99.90;;;;;;5032561;28;20033;-52
2021/01/03 12:59:14;;;;;;;20.70;7.47;;;4.60;99.90;;;;;;5031173;28;20112;-55
2021/01/03 13:01:42;;;;;;;18.63;7.43;;;4.70;99.90;;;;;;5031451;28;20022;-53
2021/01/03 13:04:07;;;;;;;19.52;7.47;;;4.70;99.90;;;;;;5031444;28;20045;-54